LIPL/QBS METAR and TAF weather

Enter ICAO airport designator
Station Type Date Time Source
LIPL METAR 2021/05/11 15:55 UTC NOAA

LIPL 111555Z /////KT 3500 -RA BR SCT006 SCT025 13/13 Q1008 RMK OVC VIS MIN 3500 WIND THR31 23003KT WIND THR13 /////KT YLO


Station Type Date Time Source
LIPL Decoded METAR 2021/05/11 15:55 UTC NOAA

Brescia / Ghedi, Italy (LIPL) 45-25N 010-17E 97M
May 11, 2021 - 11:55 AM EDT / 2021.05.11 1555 UTC
Visibility: 2 mile(s):0
Sky conditions: partly cloudy
Weather: light rain; mist
Temperature: 55 F (13 C)
Dew Point: 55 F (13 C)
Relative Humidity: 100%
Pressure (altimeter): 29.77 in. Hg (1008 hPa)
ob: LIPL 111555Z /////KT 3500 -RA BR SCT006 SCT025 13/13 Q1008 RMK OVC VIS MIN 3500 WIND THR31 23003KT WIND THR13 /////KT YLO
cycle: 16

Station Type Date Time Source
LIPL TAF 2021/01/12 09:30 UTC NOAA

TAF TAF LIPL 120800Z 1209/1221 27005KT CAVOK
TEMPO 1209/1211 5000 BR NSC

Example: see airport list